createdAt,value
2023-01-29T00:00:14.099Z,88.81
2023-01-29T00:01:13.738Z,88.81
2023-01-29T00:02:13.821Z,88.92
2023-01-29T00:03:13.841Z,89.23
2023-01-29T00:04:13.738Z,88.92
2023-01-29T00:05:26.972Z,88.75
2023-01-29T00:06:14.714Z,89.02
2023-01-29T00:07:13.690Z,89.12
2023-01-29T00:08:13.709Z,88.92
2023-01-29T00:09:13.698Z,89.37
2023-01-29T00:10:13.889Z,89.37
2023-01-29T00:11:13.638Z,89.79
2023-01-29T00:12:13.642Z,89.85
2023-01-29T00:13:13.637Z,89.64
2023-01-29T00:14:13.631Z,89.58
2023-01-29T00:15:13.636Z,89.89
2023-01-29T00:16:13.582Z,89.79
2023-01-29T00:17:13.601Z,89.95
2023-01-29T00:18:13.592Z,90.10
2023-01-29T00:19:13.552Z,90.10
2023-01-29T00:20:13.557Z,90.00
2023-01-29T00:21:13.571Z,90.31
2023-01-29T00:22:13.602Z,90.31
2023-01-29T00:23:13.583Z,90.52
2023-01-29T00:24:13.550Z,90.10
2023-01-29T00:25:13.525Z,90.20
2023-01-29T00:26:13.488Z,90.41
2023-01-29T00:27:13.476Z,91.25
2023-01-29T00:28:13.497Z,91.25
2023-01-29T00:29:13.450Z,92.08
2023-01-29T00:30:13.477Z,92.39
2023-01-29T00:31:13.526Z,92.95
2023-01-29T00:32:13.639Z,92.49
2023-01-29T00:33:13.466Z,92.85
2023-01-29T00:34:13.513Z,93.16
2023-01-29T00:35:13.406Z,93.58
2023-01-29T00:36:13.423Z,93.83
2023-01-29T00:37:13.410Z,93.52
2023-01-29T00:38:13.405Z,93.52
2023-01-29T00:39:13.399Z,93.73
2023-01-29T00:40:13.543Z,94.66
2023-01-29T00:41:13.331Z,93.83
2023-01-29T00:42:13.326Z,94.18
2023-01-29T00:43:13.327Z,94.35
2023-01-29T00:44:13.307Z,94.08
2023-01-29T00:45:13.285Z,94.49
2023-01-29T00:46:13.309Z,94.56
2023-01-29T00:47:13.256Z,95.12
2023-01-29T00:48:13.282Z,95.54
2023-01-29T00:49:13.245Z,95.33
2023-01-29T00:50:13.269Z,95.23
2023-01-29T00:51:13.238Z,95.64
2023-01-29T00:52:13.249Z,95.37
2023-01-29T00:53:13.210Z,95.64
2023-01-29T00:54:13.191Z,96.00
2023-01-29T00:55:13.200Z,95.85
2023-01-29T00:56:13.171Z,96.21
2023-01-29T00:57:13.155Z,96.06
2023-01-29T00:58:13.203Z,96.37
2023-01-29T00:59:13.132Z,96.06
2023-01-29T01:00:13.139Z,96.31
2023-01-29T01:01:13.206Z,96.37
2023-01-29T01:02:13.167Z,96.37
2023-01-29T01:03:13.121Z,95.95
2023-01-29T01:04:13.118Z,96.16
2023-01-29T01:05:13.092Z,96.52
2023-01-29T01:06:13.063Z,96.79
2023-01-29T01:07:13.045Z,96.89
2023-01-29T01:08:13.063Z,96.94
2023-01-29T01:09:13.032Z,96.94
2023-01-29T01:10:13.031Z,96.79
2023-01-29T01:11:13.041Z,96.79
2023-01-29T01:12:13.009Z,97.04
2023-01-29T01:13:13.083Z,96.94
2023-01-29T01:14:13.008Z,97.04
2023-01-29T01:15:12.969Z,96.83
2023-01-29T01:16:13.029Z,96.83
2023-01-29T01:17:12.952Z,96.83
2023-01-29T01:18:12.971Z,96.88
2023-01-29T01:19:12.942Z,97.14
2023-01-29T01:20:12.926Z,96.98
2023-01-29T01:21:12.929Z,96.98
2023-01-29T01:22:12.895Z,97.19
2023-01-29T01:23:12.990Z,96.77
2023-01-29T01:24:12.983Z,96.88
2023-01-29T01:25:12.866Z,96.88
2023-01-29T01:26:12.943Z,96.98
2023-01-29T01:27:12.856Z,96.88
2023-01-29T01:28:12.919Z,97.09
2023-01-29T01:29:12.839Z,97.09
2023-01-29T01:30:12.831Z,96.88
2023-01-29T01:31:12.882Z,97.40
2023-01-29T01:32:12.807Z,97.19
2023-01-29T01:33:12.813Z,97.50
2023-01-29T01:34:12.825Z,97.61
2023-01-29T01:35:12.797Z,97.92
2023-01-29T01:36:12.756Z,97.81
2023-01-29T01:37:12.753Z,98.02
2023-01-29T01:38:12.802Z,98.13
2023-01-29T01:39:12.724Z,98.28
2023-01-29T01:40:12.927Z,98.13
2023-01-29T01:41:12.703Z,97.75
2023-01-29T01:42:12.704Z,98.18
2023-01-29T01:43:12.711Z,98.59
2023-01-29T01:44:12.678Z,98.28
2023-01-29T01:45:12.661Z,97.97
2023-01-29T01:46:12.672Z,98.80
2023-01-29T01:47:12.712Z,98.59
2023-01-29T01:48:12.682Z,98.49
2023-01-29T01:49:12.615Z,98.80
2023-01-29T01:50:12.648Z,99.63
2023-01-29T01:51:12.590Z,98.49
2023-01-29T01:52:12.910Z,98.69
2023-01-29T01:53:12.607Z,98.59
2023-01-29T01:54:12.559Z,98.28
2023-01-29T01:55:12.553Z,99.22
2023-01-29T01:56:12.540Z,99.22
2023-01-29T01:57:12.590Z,99.43
2023-01-29T01:58:12.542Z,99.53
2023-01-29T01:59:12.514Z,99.43
2023-01-29T02:00:12.575Z,99.37
2023-01-29T02:01:12.557Z,99.32
2023-01-29T02:02:12.500Z,99.53
2023-01-29T02:03:12.497Z,99.68
2023-01-29T02:04:12.486Z,99.26
2023-01-29T02:05:12.459Z,99.37
2023-01-29T02:06:12.455Z,99.16
2023-01-29T02:07:12.431Z,99.47
2023-01-29T02:08:12.446Z,99.47
2023-01-29T02:09:12.406Z,99.57
2023-01-29T02:10:12.470Z,99.68
2023-01-29T02:11:12.415Z,99.47
2023-01-29T02:12:12.393Z,99.57
2023-01-29T02:13:12.390Z,99.22
2023-01-29T02:14:12.376Z,99.53
2023-01-29T02:15:12.354Z,99.68
2023-01-29T02:16:12.332Z,99.57
2023-01-29T02:17:12.372Z,99.57
2023-01-29T02:18:12.338Z,99.43
2023-01-29T02:19:12.326Z,99.43
2023-01-29T02:20:12.316Z,99.68
2023-01-29T02:21:12.290Z,99.99
2023-01-29T02:22:12.266Z,99.89
2023-01-29T02:23:12.273Z,99.99
2023-01-29T02:24:12.409Z,99.99
2023-01-29T02:25:12.232Z,99.99
2023-01-29T02:26:12.223Z,99.79
2023-01-29T02:27:12.211Z,99.79
2023-01-29T02:28:12.240Z,99.68
2023-01-29T02:29:12.215Z,99.79
2023-01-29T02:30:12.196Z,99.57
2023-01-29T02:31:12.252Z,99.37
2023-01-29T02:32:12.222Z,99.68
2023-01-29T02:33:12.163Z,99.47
2023-01-29T02:34:12.130Z,99.79
2023-01-29T02:35:12.158Z,99.68
2023-01-29T02:36:12.157Z,99.79
2023-01-29T02:37:12.107Z,99.26
2023-01-29T02:38:12.114Z,99.73
2023-01-29T02:39:12.110Z,99.79
2023-01-29T02:40:12.084Z,99.62
2023-01-29T02:41:12.119Z,99.68
2023-01-29T02:42:12.086Z,99.68
2023-01-29T02:43:12.099Z,99.52
2023-01-29T02:44:12.039Z,99.93
2023-01-29T02:45:12.084Z,99.83
2023-01-29T02:46:12.063Z,99.47
2023-01-29T02:47:12.032Z,99.52
2023-01-29T02:48:12.024Z,99.73
2023-01-29T02:49:12.042Z,99.83
2023-01-29T02:50:11.970Z,99.52
2023-01-29T02:51:11.957Z,99.41
2023-01-29T02:52:11.989Z,99.41
2023-01-29T02:53:11.972Z,99.31
2023-01-29T02:54:11.920Z,99.41
2023-01-29T02:55:11.926Z,99.73
2023-01-29T02:56:11.941Z,99.73
2023-01-29T02:57:11.898Z,99.83
2023-01-29T02:58:11.902Z,99.20
2023-01-29T02:59:11.889Z,99.62
2023-01-29T03:00:11.876Z,99.73
2023-01-29T03:01:11.904Z,98.99
2023-01-29T03:02:11.933Z,98.89
2023-01-29T03:03:11.858Z,98.79
2023-01-29T03:04:11.846Z,98.58
2023-01-29T03:05:11.816Z,98.58
2023-01-29T03:06:11.881Z,98.68
2023-01-29T03:07:11.831Z,99.20
2023-01-29T03:08:11.927Z,98.58
2023-01-29T03:09:11.784Z,98.68
2023-01-29T03:10:11.766Z,98.79
2023-01-29T03:11:11.756Z,98.47
2023-01-29T03:12:11.773Z,98.47
2023-01-29T03:13:11.759Z,98.47
2023-01-29T03:14:11.726Z,98.79
2023-01-29T03:15:11.768Z,98.58
2023-01-29T03:16:11.763Z,97.85
2023-01-29T03:17:11.710Z,97.53
2023-01-29T03:18:11.720Z,97.64
2023-01-29T03:19:11.683Z,97.53
2023-01-29T03:20:11.663Z,97.32
2023-01-29T03:21:11.649Z,97.43
2023-01-29T03:22:11.647Z,97.37
2023-01-29T03:23:11.655Z,97.47
2023-01-29T03:24:11.706Z,97.68
2023-01-29T03:25:11.613Z,97.68
2023-01-29T03:26:11.642Z,97.47
2023-01-29T03:27:11.579Z,97.16
2023-01-29T03:28:11.597Z,98.14
2023-01-29T03:29:11.569Z,98.46
2023-01-29T03:30:11.581Z,98.88
2023-01-29T03:31:11.584Z,98.67
2023-01-29T03:32:11.611Z,98.46
2023-01-29T03:33:11.576Z,98.56
2023-01-29T03:34:11.563Z,98.88
2023-01-29T03:35:11.511Z,98.82
2023-01-29T03:36:11.520Z,99.02
2023-01-29T03:37:11.509Z,98.92
2023-01-29T03:38:11.495Z,98.61
2023-01-29T03:39:11.518Z,99.02
2023-01-29T03:40:11.473Z,98.92
2023-01-29T03:41:11.454Z,99.02
2023-01-29T03:42:11.435Z,99.02
2023-01-29T03:43:11.442Z,98.61
2023-01-29T03:44:11.432Z,98.82
2023-01-29T03:45:11.465Z,98.92
2023-01-29T03:46:11.492Z,99.02
2023-01-29T03:47:11.385Z,98.82
2023-01-29T03:48:11.376Z,99.24
2023-01-29T03:49:11.357Z,98.82
2023-01-29T03:50:11.418Z,99.02
2023-01-29T03:51:11.325Z,99.34
2023-01-29T03:52:11.326Z,99.76
2023-01-29T03:53:11.399Z,98.71
2023-01-29T03:54:11.316Z,98.82
2023-01-29T03:55:11.312Z,99.02
2023-01-29T03:56:11.309Z,99.40
2023-01-29T03:57:11.335Z,99.96
2023-01-29T03:58:11.290Z,99.76
2023-01-29T03:59:11.279Z,99.86
2023-01-29T04:00:11.252Z,99.55
2023-01-29T04:01:11.270Z,99.29
2023-01-29T04:02:11.232Z,99.29
2023-01-29T04:03:11.250Z,99.86
2023-01-29T04:04:11.485Z,98.71
2023-01-29T04:05:11.198Z,98.92
2023-01-29T04:06:11.197Z,99.02
2023-01-29T04:07:11.203Z,99.24
2023-01-29T04:08:11.186Z,99.08
2023-01-29T04:09:11.160Z,98.35
2023-01-29T04:10:11.143Z,98.56
2023-01-29T04:11:11.145Z,98.46
2023-01-29T04:12:11.127Z,98.56
2023-01-29T04:13:11.124Z,98.67
2023-01-29T04:14:11.116Z,98.88
2023-01-29T04:15:11.107Z,98.88
2023-01-29T04:16:11.172Z,98.88
2023-01-29T04:17:11.088Z,98.67
2023-01-29T04:18:11.071Z,98.35
2023-01-29T04:19:11.087Z,98.25
2023-01-29T04:20:11.049Z,99.08
2023-01-29T04:21:11.032Z,98.88
2023-01-29T04:22:11.028Z,99.08
2023-01-29T04:23:11.027Z,99.19
2023-01-29T04:24:11.002Z,98.67
2023-01-29T04:25:11.042Z,98.82
2023-01-29T04:26:10.978Z,98.67
2023-01-29T04:27:10.955Z,98.56
2023-01-29T04:28:10.986Z,98.67
2023-01-29T04:29:10.982Z,98.67
2023-01-29T04:30:10.938Z,98.50
2023-01-29T04:31:11.112Z,98.46
2023-01-29T04:32:10.926Z,98.50
2023-01-29T04:33:10.981Z,98.56
2023-01-29T04:34:10.909Z,98.29
2023-01-29T04:35:10.920Z,98.56
2023-01-29T04:36:10.883Z,98.61
2023-01-29T04:37:10.851Z,98.50
2023-01-29T04:38:10.914Z,98.29
2023-01-29T04:39:11.969Z,98.82
2023-01-29T04:40:10.826Z,98.61
2023-01-29T04:41:10.824Z,98.61
2023-01-29T04:42:10.822Z,98.82
2023-01-29T04:43:10.828Z,98.82
2023-01-29T04:44:10.804Z,99.13
2023-01-29T04:45:10.783Z,99.34
2023-01-29T04:46:10.771Z,98.71
2023-01-29T04:47:10.846Z,99.44
2023-01-29T04:48:10.786Z,99.44
2023-01-29T04:49:10.744Z,99.34
2023-01-29T04:50:10.724Z,99.91
2023-01-29T04:51:10.782Z,99.99
2023-01-29T04:52:10.719Z,99.91
2023-01-29T04:53:10.724Z,99.70
2023-01-29T04:54:10.700Z,99.49
2023-01-29T04:55:10.714Z,99.49
2023-01-29T04:56:10.668Z,99.59
2023-01-29T04:57:10.661Z,99.70
2023-01-29T04:58:10.670Z,99.38
2023-01-29T04:59:10.641Z,99.59
2023-01-29T05:00:10.625Z,99.95
2023-01-29T05:01:10.631Z,99.95
2023-01-29T05:02:10.663Z,99.85
2023-01-29T05:03:10.614Z,99.70
2023-01-29T05:04:10.614Z,99.70
2023-01-29T05:05:10.636Z,99.99
2023-01-29T05:06:10.584Z,99.91
2023-01-29T05:07:10.568Z,99.99
2023-01-29T05:08:10.561Z,99.99
2023-01-29T05:09:10.533Z,99.99
2023-01-29T05:10:10.525Z,99.99
2023-01-29T05:11:10.510Z,99.99
2023-01-29T05:12:10.579Z,99.99
2023-01-29T05:13:10.497Z,99.99
2023-01-29T05:14:10.502Z,99.99
2023-01-29T05:15:10.517Z,99.99
2023-01-29T05:16:10.530Z,99.99
2023-01-29T05:17:10.444Z,99.99
2023-01-29T05:18:10.515Z,99.99
2023-01-29T05:19:10.438Z,99.99
2023-01-29T05:20:10.429Z,99.99
2023-01-29T05:21:10.406Z,99.99
2023-01-29T05:22:10.405Z,99.99
2023-01-29T05:23:10.424Z,99.99
2023-01-29T05:24:10.404Z,99.99
2023-01-29T05:25:10.352Z,99.99
2023-01-29T05:26:10.391Z,99.99
2023-01-29T05:27:10.368Z,99.99
2023-01-29T05:28:10.360Z,99.99
2023-01-29T05:29:10.346Z,99.99
2023-01-29T05:30:10.336Z,99.99
2023-01-29T05:31:10.433Z,99.99
2023-01-29T05:32:10.289Z,99.99
2023-01-29T05:33:10.325Z,99.99
2023-01-29T05:34:10.269Z,99.99
2023-01-29T05:35:10.246Z,99.99
2023-01-29T05:36:10.241Z,99.99
2023-01-29T05:37:10.237Z,99.99
2023-01-29T05:38:10.301Z,99.99
2023-01-29T05:39:10.231Z,99.99
2023-01-29T05:40:10.204Z,99.99
2023-01-29T05:41:10.210Z,99.99
2023-01-29T05:42:10.192Z,99.95
2023-01-29T05:43:10.256Z,99.99
2023-01-29T05:44:10.183Z,99.99
2023-01-29T05:45:10.191Z,99.99
2023-01-29T05:46:10.156Z,99.99
2023-01-29T05:47:10.149Z,99.99
2023-01-29T05:48:10.158Z,99.95
2023-01-29T05:49:10.113Z,99.99
2023-01-29T05:50:10.119Z,99.99
2023-01-29T05:51:10.109Z,99.99
2023-01-29T05:52:10.072Z,99.99
2023-01-29T05:53:10.093Z,99.99
2023-01-29T05:54:10.089Z,99.99
2023-01-29T05:55:10.074Z,99.99
2023-01-29T05:56:10.055Z,99.95
2023-01-29T05:57:10.029Z,99.91
2023-01-29T05:58:10.019Z,99.91
2023-01-29T05:59:10.000Z,99.91
2023-01-29T06:00:10.101Z,99.80
2023-01-29T06:01:09.999Z,99.99
2023-01-29T06:02:10.028Z,99.99
2023-01-29T06:03:10.079Z,99.99
2023-01-29T06:04:09.954Z,99.99
2023-01-29T06:05:09.979Z,99.99
2023-01-29T06:06:09.933Z,99.99
2023-01-29T06:07:09.922Z,99.85
2023-01-29T06:08:09.946Z,99.90
2023-01-29T06:09:09.901Z,99.99
2023-01-29T06:10:09.894Z,99.99
2023-01-29T06:11:09.917Z,99.99
2023-01-29T06:12:09.874Z,99.99
2023-01-29T06:13:09.925Z,99.99
2023-01-29T06:14:09.869Z,99.79
2023-01-29T06:15:09.835Z,99.99
2023-01-29T06:16:09.939Z,99.99
2023-01-29T06:17:09.816Z,99.99
2023-01-29T06:18:09.820Z,99.99
2023-01-29T06:19:09.807Z,99.99
2023-01-29T06:20:09.849Z,99.99
2023-01-29T06:21:09.815Z,99.99
2023-01-29T06:22:09.756Z,99.99
2023-01-29T06:23:09.793Z,99.99
2023-01-29T06:24:09.786Z,99.99
2023-01-29T06:25:09.751Z,99.99
2023-01-29T06:26:09.744Z,99.99
2023-01-29T06:27:09.793Z,99.99
2023-01-29T06:28:09.724Z,99.99
2023-01-29T06:29:09.693Z,99.99
2023-01-29T06:30:09.734Z,99.99
2023-01-29T06:31:33.100Z,99.99
2023-01-29T06:32:10.698Z,99.99
2023-01-29T06:33:09.718Z,99.99
2023-01-29T06:34:09.650Z,99.99
2023-01-29T06:35:09.636Z,99.99
2023-01-29T06:36:09.621Z,99.99
2023-01-29T06:37:09.646Z,99.99
2023-01-29T06:38:09.635Z,99.99
2023-01-29T06:39:09.647Z,99.99
2023-01-29T06:40:09.583Z,99.99
2023-01-29T06:41:09.592Z,99.99
2023-01-29T06:42:09.577Z,99.99
2023-01-29T06:43:09.708Z,99.99
2023-01-29T06:44:09.547Z,99.99
2023-01-29T06:45:09.540Z,99.99
2023-01-29T06:46:09.554Z,99.99
2023-01-29T06:47:09.520Z,99.99
2023-01-29T06:48:09.770Z,99.99
2023-01-29T06:49:09.509Z,99.99
2023-01-29T06:50:09.509Z,99.99
2023-01-29T06:51:09.458Z,99.99
2023-01-29T06:52:09.463Z,99.99
2023-01-29T06:53:09.461Z,99.99
2023-01-29T06:54:09.448Z,99.99
2023-01-29T06:55:09.438Z,99.99
2023-01-29T06:56:09.485Z,99.99
2023-01-29T06:57:09.406Z,99.99
2023-01-29T06:58:09.411Z,99.99
2023-01-29T06:59:09.385Z,99.99
2023-01-29T07:00:09.375Z,99.99
2023-01-29T07:01:09.477Z,99.99
2023-01-29T07:02:09.396Z,99.99
2023-01-29T07:03:09.394Z,99.99
2023-01-29T07:04:09.391Z,99.99
2023-01-29T07:05:09.345Z,99.99
2023-01-29T07:06:09.327Z,99.99
2023-01-29T07:07:09.312Z,99.99
2023-01-29T07:08:09.303Z,99.99
2023-01-29T07:09:09.280Z,99.99
2023-01-29T07:10:09.291Z,99.99
2023-01-29T07:11:09.250Z,99.99
2023-01-29T07:12:09.247Z,99.99
2023-01-29T07:13:09.281Z,99.99
2023-01-29T07:14:09.268Z,99.99
2023-01-29T07:15:09.214Z,99.99
2023-01-29T07:16:09.233Z,99.99
2023-01-29T07:17:09.278Z,99.99
2023-01-29T07:18:09.233Z,99.99
2023-01-29T07:19:09.204Z,99.99
2023-01-29T07:20:09.183Z,99.99
2023-01-29T07:21:09.159Z,99.99
2023-01-29T07:22:09.208Z,99.99
2023-01-29T07:23:09.165Z,99.99
2023-01-29T07:24:09.238Z,99.99
2023-01-29T07:25:09.137Z,99.99
2023-01-29T07:26:09.105Z,99.99
2023-01-29T07:27:09.135Z,99.99
2023-01-29T07:28:09.163Z,99.99
2023-01-29T07:29:09.085Z,99.99
2023-01-29T07:30:09.059Z,99.99
2023-01-29T07:31:09.119Z,99.99
2023-01-29T07:32:09.081Z,99.99
2023-01-29T07:33:09.074Z,99.99
2023-01-29T07:34:09.022Z,99.99
2023-01-29T07:35:09.003Z,99.99
2023-01-29T07:36:11.904Z,99.99
2023-01-29T07:37:10.443Z,99.99
2023-01-29T07:38:08.997Z,99.99
2023-01-29T07:39:08.963Z,99.99
2023-01-29T07:40:08.960Z,99.99
2023-01-29T07:41:16.994Z,99.99
2023-01-29T07:42:08.935Z,99.99
2023-01-29T07:43:08.934Z,99.99
2023-01-29T07:44:08.911Z,99.99
2023-01-29T07:45:15.672Z,99.99
2023-01-29T07:46:15.857Z,99.99
2023-01-29T07:47:09.001Z,99.99
2023-01-29T07:48:08.871Z,99.29
2023-01-29T07:49:08.861Z,98.52
2023-01-29T07:50:08.895Z,97.11
2023-01-29T07:51:09.219Z,96.97
2023-01-29T07:52:08.848Z,95.55
2023-01-29T07:53:08.848Z,94.92
2023-01-29T07:54:11.356Z,95.38
2023-01-29T07:55:09.179Z,95.53
2023-01-29T07:56:08.810Z,95.95
2023-01-29T07:57:08.828Z,96.41
2023-01-29T07:58:08.793Z,96.41
2023-01-29T07:59:08.766Z,96.88
2023-01-29T08:00:08.761Z,97.67
2023-01-29T08:01:08.840Z,97.68
2023-01-29T08:02:08.829Z,96.91
2023-01-29T08:03:15.155Z,95.82
2023-01-29T08:04:09.130Z,94.21
2023-01-29T08:05:16.190Z,93.02
2023-01-29T08:06:08.677Z,93.50
2023-01-29T08:07:08.668Z,91.58
2023-01-29T08:08:08.675Z,90.50
2023-01-29T08:09:08.689Z,89.56
2023-01-29T08:10:08.646Z,89.87
2023-01-29T08:11:08.639Z,90.04
2023-01-29T08:13:19.205Z,87.75
2023-01-29T08:14:08.599Z,88.75
2023-01-29T08:15:08.587Z,87.84
2023-01-29T08:16:08.638Z,86.90
2023-01-29T08:17:09.195Z,86.32
2023-01-29T08:18:08.627Z,86.83
2023-01-29T08:19:08.557Z,87.19
2023-01-29T08:20:08.547Z,87.92
2023-01-29T08:22:17.031Z,88.27
2023-01-29T08:23:08.524Z,88.06
2023-01-29T08:24:08.541Z,89.56
2023-01-29T08:25:08.864Z,88.79
2023-01-29T08:26:08.469Z,88.58
2023-01-29T08:27:08.469Z,89.10
2023-01-29T08:28:08.468Z,89.45
2023-01-29T08:29:08.472Z,89.14
2023-01-29T08:31:17.593Z,90.22
2023-01-29T08:32:08.415Z,90.12
2023-01-29T08:33:08.423Z,90.01
2023-01-29T08:34:08.386Z,90.54
2023-01-29T08:35:08.378Z,90.12
2023-01-29T08:36:08.399Z,90.47
2023-01-29T08:37:08.375Z,90.68
2023-01-29T08:38:09.302Z,90.72
2023-01-29T08:40:16.624Z,91.14
2023-01-29T08:41:08.314Z,91.77
2023-01-29T08:42:08.321Z,92.08
2023-01-29T08:43:09.519Z,91.87
2023-01-29T08:44:08.284Z,91.77
2023-01-29T08:45:08.271Z,91.66
2023-01-29T08:46:08.354Z,92.18
2023-01-29T08:47:09.574Z,92.08
2023-01-29T11:24:22.313Z,69.31
2023-01-29T11:25:22.292Z,69.17
2023-01-29T11:26:22.344Z,68.32
2023-01-29T11:27:22.277Z,64.92
2023-01-29T11:28:22.411Z,68.11
2023-01-29T11:29:22.384Z,67.05
2023-01-29T11:30:26.075Z,69.18
2023-01-29T11:31:22.389Z,67.60
2023-01-29T11:32:22.378Z,67.50
2023-01-29T11:33:22.225Z,68.50
2023-01-29T11:34:25.988Z,67.19
2023-01-29T11:35:29.475Z,67.40
2023-01-29T11:37:50.779Z,67.33
2023-01-29T11:38:50.351Z,67.97
2023-01-29T11:39:55.755Z,67.08
2023-01-29T11:40:53.702Z,66.42
2023-01-29T11:41:50.558Z,69.62
2023-01-29T11:42:50.434Z,70.10
2023-01-29T11:44:05.383Z,68.79
2023-01-29T11:44:49.875Z,70.99
2023-01-29T11:45:51.877Z,72.67
2023-01-29T11:48:54.814Z,69.81
2023-01-29T11:49:53.057Z,70.22
2023-01-29T11:50:52.853Z,70.87
2023-01-29T11:51:52.994Z,73.67
2023-01-29T11:52:52.790Z,71.53
2023-01-29T11:53:52.784Z,71.64
2023-01-29T11:54:52.857Z,71.61
2023-01-29T11:55:52.823Z,71.61
2023-01-29T11:56:52.737Z,72.33
2023-01-29T11:57:52.755Z,71.47
2023-01-29T11:58:52.730Z,69.43
2023-01-29T11:59:52.720Z,70.88
2023-01-29T12:00:53.272Z,70.09
2023-01-29T12:01:53.210Z,70.36
2023-01-29T12:02:52.695Z,72.22
2023-01-29T12:03:52.892Z,70.91
2023-01-29T12:04:52.652Z,70.98
2023-01-29T12:05:52.925Z,71.01
2023-01-29T12:06:52.689Z,71.15
2023-01-29T12:07:52.700Z,72.98
2023-01-29T12:08:52.725Z,71.67
2023-01-29T12:09:52.852Z,73.81
2023-01-29T12:10:52.787Z,74.29
2023-01-29T12:11:52.689Z,72.43
2023-01-29T12:12:52.575Z,73.67
2023-01-29T12:13:52.625Z,72.81
2023-01-29T12:14:52.579Z,71.84
2023-01-29T12:15:54.823Z,70.78
2023-01-29T12:16:54.623Z,71.67
2023-01-29T12:17:55.055Z,70.23
2023-01-29T12:18:58.982Z,70.51
2023-01-29T12:19:52.839Z,68.58
2023-01-29T12:20:52.890Z,68.51
2023-01-29T12:21:52.543Z,69.48
2023-01-29T12:23:31.105Z,69.34
2023-01-29T12:24:24.044Z,67.41
2023-01-29T12:25:16.158Z,68.06
2023-01-29T12:26:17.823Z,69.82
2023-01-29T12:26:54.074Z,69.68
2023-01-29T12:27:53.464Z,69.37
2023-01-29T12:28:53.109Z,70.57
2023-01-29T12:29:59.600Z,70.34
2023-01-29T12:30:52.760Z,70.31
2023-01-29T12:31:52.675Z,69.10
2023-01-29T12:32:52.611Z,68.96
2023-01-29T12:33:52.403Z,70.00
2023-01-29T12:34:52.652Z,68.69
2023-01-29T12:35:53.320Z,70.06
2023-01-29T12:36:52.374Z,70.78
2023-01-29T12:37:53.459Z,70.89
2023-01-29T12:38:52.360Z,72.13
2023-01-29T12:39:52.325Z,71.81
2023-01-29T12:40:52.265Z,71.81
2023-01-29T12:41:52.296Z,70.34
2023-01-29T12:42:54.010Z,70.31
2023-01-29T12:43:52.822Z,68.27
2023-01-29T12:44:53.125Z,69.31
2023-01-29T12:45:53.327Z,68.90
2023-01-29T12:46:53.844Z,69.24
2023-01-29T12:47:52.493Z,69.17
2023-01-29T12:49:32.761Z,70.17
2023-01-29T12:49:52.258Z,71.03
2023-01-29T12:50:52.803Z,71.06
2023-01-29T12:52:28.515Z,71.75
2023-01-29T12:52:54.259Z,70.92
2023-01-29T12:53:53.418Z,69.27
2023-01-29T12:54:52.433Z,70.13
2023-01-29T12:55:55.044Z,70.37
2023-01-29T12:56:55.205Z,70.06
2023-01-29T12:57:52.118Z,69.71
2023-01-29T12:58:52.093Z,71.78
2023-01-29T12:59:52.085Z,70.03
2023-01-29T13:01:02.877Z,70.50
2023-01-29T13:01:54.851Z,71.15
2023-01-29T13:02:55.550Z,73.39
2023-01-29T13:03:52.054Z,72.02
2023-01-29T13:04:52.009Z,72.74
2023-01-29T13:05:52.016Z,73.15
2023-01-29T13:06:51.993Z,73.02
2023-01-29T13:07:51.989Z,71.78
2023-01-29T13:08:52.105Z,73.39
2023-01-29T13:09:51.999Z,73.77
2023-01-29T13:10:53.372Z,72.85
2023-01-29T13:11:52.144Z,71.19
2023-01-29T13:12:53.107Z,71.71
2023-01-29T13:14:30.263Z,71.47
2023-01-29T13:14:52.028Z,70.23
2023-01-29T13:15:52.072Z,70.23
2023-01-29T13:16:51.918Z,71.26
2023-01-29T13:17:51.899Z,71.57
2023-01-29T13:18:52.408Z,70.51
2023-01-29T13:19:51.948Z,69.03
2023-01-29T13:20:51.853Z,69.03
2023-01-29T13:21:51.849Z,68.72
2023-01-29T13:22:51.835Z,69.41
2023-01-29T13:23:51.816Z,67.11
2023-01-29T13:25:06.992Z,68.96
2023-01-29T13:25:53.059Z,68.76
2023-01-29T13:26:51.976Z,69.45
2023-01-29T13:27:51.828Z,69.21
2023-01-29T13:28:54.912Z,67.36
2023-01-29T13:29:54.365Z,66.64
2023-01-29T13:30:52.094Z,67.29
2023-01-29T13:32:02.167Z,67.29
2023-01-29T13:32:54.202Z,67.60
2023-01-29T13:33:51.754Z,67.60
2023-01-29T13:34:52.445Z,67.90
2023-01-29T13:35:52.024Z,69.01
2023-01-29T13:36:52.159Z,67.70
2023-01-29T13:37:51.689Z,66.64
2023-01-29T13:38:52.070Z,67.36
2023-01-29T13:39:51.739Z,68.59
2023-01-29T13:40:51.719Z,67.97
2023-01-29T13:41:51.605Z,66.05
2023-01-29T13:42:51.592Z,67.21
2023-01-29T13:43:51.677Z,69.17
2023-01-29T13:44:51.594Z,70.17
2023-01-29T13:45:51.612Z,70.23
2023-01-29T13:46:51.594Z,71.71
2023-01-29T13:47:51.931Z,71.33
2023-01-29T13:48:51.623Z,73.60
2023-01-29T13:49:51.522Z,72.02
2023-01-29T13:50:51.656Z,73.15
2023-01-29T13:51:51.724Z,73.77
2023-01-29T13:52:53.776Z,74.43
2023-01-29T13:53:51.507Z,74.95
2023-01-29T13:54:51.470Z,75.67
2023-01-29T13:55:51.979Z,75.98
2023-01-29T13:56:53.000Z,76.29
2023-01-29T13:57:54.719Z,76.40
2023-01-29T13:58:51.467Z,75.78
2023-01-29T13:59:55.300Z,75.40
2023-01-29T14:00:51.501Z,75.19
2023-01-29T14:02:20.911Z,76.32
2023-01-29T14:02:59.589Z,75.40
2023-01-29T14:04:08.601Z,74.77
2023-01-29T14:04:51.374Z,75.40
2023-01-29T14:05:51.477Z,76.12
2023-01-29T14:06:51.889Z,76.32
2023-01-29T14:08:12.902Z,76.12
2023-01-29T14:08:56.407Z,75.78
2023-01-29T14:09:51.382Z,76.29
2023-01-29T14:10:51.307Z,77.53
2023-01-29T14:11:57.495Z,76.29
2023-01-29T14:12:52.467Z,76.91
2023-01-29T14:13:51.387Z,76.26
2023-01-29T14:14:51.980Z,74.12
2023-01-29T14:15:56.030Z,74.32
2023-01-29T14:16:51.296Z,75.60
2023-01-29T14:17:59.111Z,75.78
2023-01-29T14:18:56.222Z,76.29
2023-01-29T14:19:51.366Z,75.46
2023-01-29T14:20:51.385Z,74.32
2023-01-29T14:21:52.053Z,74.43
2023-01-29T14:22:51.177Z,75.98
2023-01-29T14:23:53.185Z,76.50
2023-01-29T14:24:51.208Z,75.46
2023-01-29T14:25:51.137Z,76.91
2023-01-29T14:26:51.154Z,76.81
2023-01-29T14:27:51.205Z,77.22
2023-01-29T14:28:51.196Z,76.61
2023-01-29T14:29:51.172Z,75.60
2023-01-29T14:30:51.181Z,76.43
2023-01-29T14:31:51.194Z,77.05
2023-01-29T14:32:51.115Z,75.95
2023-01-29T14:33:54.440Z,77.71
2023-01-29T14:34:51.066Z,78.44
2023-01-29T14:35:51.219Z,77.71
2023-01-29T14:36:51.054Z,77.23
2023-01-29T14:37:51.003Z,76.71
2023-01-29T14:38:52.594Z,77.64
2023-01-29T14:39:51.021Z,77.75
2023-01-29T14:40:51.467Z,78.37
2023-01-29T14:41:50.980Z,78.16
2023-01-29T14:42:50.952Z,77.23
2023-01-29T14:43:50.963Z,77.23
2023-01-29T14:44:51.155Z,77.64
2023-01-29T14:45:51.179Z,77.75
2023-01-29T14:46:50.942Z,77.44
2023-01-29T14:47:50.945Z,77.75
2023-01-29T14:48:50.907Z,77.44
2023-01-29T14:49:51.095Z,78.09
2023-01-29T14:50:50.889Z,78.16
2023-01-29T14:51:50.893Z,78.20
2023-01-29T14:52:50.886Z,79.20
2023-01-29T14:53:50.861Z,79.71
2023-01-29T14:54:50.856Z,78.61
2023-01-29T14:55:50.929Z,79.10
2023-01-29T14:56:50.793Z,78.89
2023-01-29T14:57:50.800Z,78.99
2023-01-29T14:58:53.203Z,79.75
2023-01-29T14:59:50.794Z,78.61
2023-01-29T15:00:50.815Z,78.51
2023-01-29T15:01:50.821Z,79.24
2023-01-29T15:02:59.848Z,79.34
2023-01-29T15:03:51.772Z,79.44
2023-01-29T15:04:50.728Z,78.51
2023-01-29T15:05:51.459Z,79.69
2023-01-29T15:06:50.694Z,79.24
2023-01-29T15:07:51.767Z,80.89
2023-01-29T15:08:51.362Z,80.68
2023-01-29T15:09:50.663Z,81.20
2023-01-29T15:10:50.803Z,81.20
2023-01-29T15:11:50.651Z,80.27
2023-01-29T15:12:50.691Z,80.27
2023-01-29T15:13:50.649Z,81.30
2023-01-29T15:14:50.624Z,81.20
2023-01-29T15:15:50.719Z,80.58
2023-01-29T15:16:50.647Z,81.10
2023-01-29T15:17:50.619Z,80.89
2023-01-29T15:18:50.565Z,80.58
2023-01-29T15:19:51.354Z,79.55
2023-01-29T15:20:50.719Z,79.13
2023-01-29T15:21:50.545Z,79.96
2023-01-29T15:22:50.581Z,79.75
2023-01-29T15:23:50.525Z,79.96
2023-01-29T15:24:50.521Z,80.47
2023-01-29T15:25:50.637Z,80.89
2023-01-29T15:26:51.246Z,80.62
2023-01-29T15:27:51.471Z,80.73
2023-01-29T15:28:58.493Z,80.06
2023-01-29T15:29:51.550Z,80.10
2023-01-29T15:30:50.651Z,81.30
2023-01-29T15:31:50.585Z,80.93
2023-01-29T15:32:50.430Z,81.04
2023-01-29T15:33:50.487Z,80.41
2023-01-29T15:34:52.451Z,80.52
2023-01-29T15:35:53.681Z,80.00